createdAt,value
2023-05-21T00:00:58.138Z,12.30
2023-05-21T00:03:14.268Z,12.75
2023-05-21T00:05:15.009Z,12.27
2023-05-21T00:07:11.296Z,12.55
2023-05-21T00:09:08.208Z,12.63
2023-05-21T00:11:03.468Z,12.20
2023-05-21T00:13:01.754Z,12.73
2023-05-21T00:14:56.869Z,12.43
2023-05-21T00:16:54.907Z,11.73
2023-05-21T00:18:50.176Z,12.27
2023-05-21T00:20:45.889Z,12.90
2023-05-21T00:22:42.446Z,12.38
2023-05-21T00:24:38.006Z,12.88
2023-05-21T00:26:33.023Z,12.90
2023-05-21T00:28:28.505Z,12.48
2023-05-21T00:30:23.534Z,12.52
2023-05-21T00:32:21.472Z,13.73
2023-05-21T00:34:17.210Z,14.13
2023-05-21T00:36:14.642Z,12.48
2023-05-21T00:38:10.305Z,13.10
2023-05-21T00:40:08.857Z,13.60
2023-05-21T00:42:04.434Z,13.55
2023-05-21T00:44:00.375Z,13.40
2023-05-21T00:45:56.690Z,12.32
2023-05-21T00:47:55.496Z,13.45
2023-05-21T00:49:51.668Z,13.18
2023-05-21T00:51:48.564Z,12.77
2023-05-21T00:53:44.400Z,13.80
2023-05-21T00:55:40.282Z,14.27
2023-05-21T00:57:37.288Z,14.00
2023-05-21T00:59:33.146Z,13.77
2023-05-21T01:01:33.863Z,13.55
2023-05-21T01:03:38.838Z,14.07
2023-05-21T01:05:34.399Z,13.40
2023-05-21T01:07:29.948Z,13.90
2023-05-21T01:09:25.316Z,13.32
2023-05-21T01:11:22.125Z,13.23
2023-05-21T01:13:18.001Z,13.35
2023-05-21T01:15:14.541Z,13.77
2023-05-21T01:17:10.586Z,13.40
2023-05-21T01:19:10.428Z,13.25
2023-05-21T01:21:07.608Z,14.68
2023-05-21T01:23:06.429Z,15.35
2023-05-21T01:25:02.908Z,13.15
2023-05-21T01:26:58.858Z,13.88
2023-05-21T01:28:53.953Z,14.48
2023-05-21T01:30:50.181Z,14.95
2023-05-21T01:32:50.995Z,14.02
2023-05-21T01:34:53.874Z,13.88
2023-05-21T01:37:00.284Z,14.32
2023-05-21T01:39:04.771Z,13.73
2023-05-21T01:41:03.978Z,14.27
2023-05-21T01:43:01.280Z,12.77
2023-05-21T01:45:00.431Z,13.98
2023-05-21T01:46:57.389Z,14.20
2023-05-21T01:48:54.022Z,13.77
2023-05-21T01:50:50.567Z,13.25
2023-05-21T01:52:52.789Z,13.63
2023-05-21T01:54:51.496Z,14.25
2023-05-21T01:56:48.049Z,14.52
2023-05-21T01:58:44.125Z,13.57
2023-05-21T02:00:40.138Z,14.25
2023-05-21T02:02:35.591Z,15.70
2023-05-21T02:04:31.885Z,15.70
2023-05-21T02:06:27.722Z,14.57
2023-05-21T02:08:23.534Z,14.45
2023-05-21T02:10:22.234Z,15.15
2023-05-21T02:12:17.575Z,14.60
2023-05-21T02:14:14.168Z,14.70
2023-05-21T02:16:10.347Z,15.65
2023-05-21T02:18:06.362Z,14.80
2023-05-21T02:20:11.162Z,15.60
2023-05-21T02:22:07.112Z,14.82
2023-05-21T02:24:02.471Z,15.75
2023-05-21T02:26:00.891Z,15.85
2023-05-21T02:27:56.908Z,17.42
2023-05-21T02:29:52.576Z,17.50
2023-05-21T02:31:47.859Z,17.20
2023-05-21T02:33:44.182Z,15.13
2023-05-21T02:35:39.482Z,15.18
2023-05-21T02:37:33.957Z,15.50
2023-05-21T02:39:29.377Z,15.98
2023-05-21T02:41:27.814Z,16.67
2023-05-21T02:43:23.279Z,15.63
2023-05-21T02:45:19.031Z,16.25
2023-05-21T02:47:14.406Z,15.82
2023-05-21T02:49:10.097Z,16.42
2023-05-21T02:51:05.439Z,16.55
2023-05-21T02:53:01.300Z,16.08
2023-05-21T02:54:56.373Z,17.08
2023-05-21T02:56:54.378Z,16.52
2023-05-21T02:58:49.548Z,17.23
2023-05-21T03:00:44.879Z,17.35
2023-05-21T03:02:40.029Z,17.38
2023-05-21T03:04:39.325Z,17.02
2023-05-21T03:06:34.954Z,16.77
2023-05-21T03:08:30.295Z,16.40
2023-05-21T03:10:25.434Z,17.73
2023-05-21T03:12:23.406Z,17.70
2023-05-21T03:14:18.970Z,16.83
2023-05-21T03:16:14.444Z,16.60
2023-05-21T03:18:09.596Z,17.23
2023-05-21T03:20:05.380Z,17.77
2023-05-21T03:22:00.454Z,17.33
2023-05-21T03:23:58.789Z,17.65
2023-05-21T03:25:54.066Z,17.65
2023-05-21T03:27:52.259Z,17.88
2023-05-21T03:29:47.286Z,18.25
2023-05-21T03:31:42.654Z,17.55
2023-05-21T03:33:37.801Z,17.65
2023-05-21T03:35:33.194Z,18.52
2023-05-21T03:37:28.344Z,17.95
2023-05-21T03:39:23.794Z,18.70
2023-05-21T03:41:18.990Z,18.40
2023-05-21T03:43:17.024Z,19.23
2023-05-21T03:45:12.841Z,18.65
2023-05-21T03:47:08.526Z,18.98
2023-05-21T03:49:03.611Z,19.63
2023-05-21T03:50:59.377Z,18.55
2023-05-21T03:52:54.435Z,20.67
2023-05-21T03:54:49.783Z,19.30
2023-05-21T03:56:44.830Z,19.88
2023-05-21T03:58:42.843Z,19.40
2023-05-21T04:00:38.008Z,20.35
2023-05-21T04:02:34.780Z,18.88
2023-05-21T04:04:29.915Z,20.40
2023-05-21T04:06:25.384Z,20.20
2023-05-21T04:08:20.466Z,20.80
2023-05-21T04:10:13.271Z,20.90
2023-05-21T04:12:09.092Z,20.92
2023-05-21T04:14:07.044Z,22.05
2023-05-21T04:16:02.122Z,21.13
2023-05-21T04:17:58.736Z,21.88
2023-05-21T04:19:54.537Z,21.73
2023-05-21T04:21:49.869Z,21.88
2023-05-21T04:23:44.887Z,21.98
2023-05-21T04:25:40.620Z,21.55
2023-05-21T04:27:35.664Z,21.73
2023-05-21T04:29:33.613Z,22.52
2023-05-21T04:31:28.798Z,22.13
2023-05-21T04:33:24.703Z,22.50
2023-05-21T04:35:19.778Z,22.88
2023-05-21T04:37:17.959Z,22.77
2023-05-21T04:39:13.199Z,22.10
2023-05-21T04:41:10.995Z,22.85
2023-05-21T04:43:06.100Z,22.75
2023-05-21T04:45:04.536Z,23.42
2023-05-21T04:47:00.674Z,22.63
2023-05-21T04:48:56.401Z,23.98
2023-05-21T04:50:52.157Z,24.17
2023-05-21T04:52:47.941Z,23.45
2023-05-21T04:54:45.956Z,23.13
2023-05-21T04:56:41.680Z,22.27
2023-05-21T04:58:37.317Z,22.83
2023-05-21T05:00:37.878Z,22.75
2023-05-21T05:02:33.277Z,24.05
2023-05-21T05:04:29.305Z,23.17
2023-05-21T05:06:25.989Z,23.83
2023-05-21T05:08:21.858Z,23.25
2023-05-21T05:10:17.249Z,24.83
2023-05-21T05:12:12.979Z,24.13
2023-05-21T05:14:08.038Z,22.77
2023-05-21T05:16:06.269Z,23.48
2023-05-21T05:18:02.031Z,22.63
2023-05-21T05:19:57.394Z,23.35
2023-05-21T05:21:54.776Z,23.23
2023-05-21T05:23:50.272Z,23.23
2023-05-21T05:25:45.469Z,23.50
2023-05-21T05:27:40.780Z,23.33
2023-05-21T05:29:35.867Z,21.85
2023-05-21T05:31:33.965Z,22.75
2023-05-21T05:33:29.078Z,23.02
2023-05-21T05:35:24.643Z,21.73
2023-05-21T05:37:19.736Z,21.95
2023-05-21T05:39:15.109Z,23.50
2023-05-21T05:41:10.181Z,22.30
2023-05-21T05:43:05.685Z,22.08
2023-05-21T05:45:00.735Z,22.13
2023-05-21T05:46:58.702Z,21.88
2023-05-21T05:48:53.805Z,21.70
2023-05-21T05:50:49.296Z,21.25
2023-05-21T05:52:44.429Z,22.02
2023-05-21T05:54:39.837Z,22.13
2023-05-21T05:56:34.915Z,21.42
2023-05-21T05:58:30.729Z,20.92
2023-05-21T06:00:26.381Z,22.00
2023-05-21T06:02:24.391Z,21.60
2023-05-21T06:04:19.505Z,19.85
2023-05-21T06:06:15.058Z,20.02
2023-05-21T06:08:10.190Z,21.05
2023-05-21T06:10:05.605Z,21.20
2023-05-21T06:12:01.113Z,21.35
2023-05-21T06:13:56.836Z,21.02
2023-05-21T06:15:52.187Z,20.38
2023-05-21T06:17:50.341Z,20.15
2023-05-21T06:19:46.237Z,20.60
2023-05-21T06:21:41.610Z,20.08
2023-05-21T06:23:37.835Z,84.93
2023-05-21T06:25:33.363Z,78.05
2023-05-21T06:27:28.444Z,20.80
2023-05-21T06:29:23.823Z,19.27
2023-05-21T06:31:19.115Z,20.35
2023-05-21T06:33:17.197Z,20.38
2023-05-21T06:35:12.851Z,20.00
2023-05-21T06:37:08.517Z,19.85
2023-05-21T06:39:03.594Z,21.17
2023-05-21T06:40:58.987Z,19.35
2023-05-21T06:42:54.018Z,18.77
2023-05-21T06:44:49.520Z,20.35
2023-05-21T06:46:44.589Z,19.08
2023-05-21T06:48:42.724Z,19.17
2023-05-21T06:50:37.766Z,18.88
2023-05-21T06:52:33.311Z,20.52
2023-05-21T06:54:28.450Z,19.48
2023-05-21T06:56:24.517Z,19.52
2023-05-21T06:58:19.796Z,21.05
2023-05-21T07:00:16.386Z,20.27
2023-05-21T07:02:11.547Z,19.67
2023-05-21T07:04:09.695Z,19.75
2023-05-21T07:06:04.789Z,19.98
2023-05-21T07:08:00.147Z,19.08
2023-05-21T07:09:55.180Z,18.58
2023-05-21T07:11:50.562Z,18.92
2023-05-21T07:13:45.898Z,25.60
2023-05-21T07:15:41.570Z,19.77
2023-05-21T07:17:37.659Z,18.33
2023-05-21T07:19:36.029Z,18.00
2023-05-21T07:21:31.382Z,18.60
2023-05-21T07:23:27.050Z,19.45
2023-05-21T07:25:22.710Z,17.67
2023-05-21T07:29:19.874Z,18.73
2023-05-21T07:31:15.732Z,17.48
2023-05-21T07:33:13.931Z,17.40
2023-05-21T07:35:12.692Z,17.38
2023-05-21T07:37:08.125Z,57.33
2023-05-21T07:39:04.078Z,19.67
2023-05-21T07:40:59.727Z,16.25
2023-05-21T07:42:55.483Z,16.50
2023-05-21T07:44:50.971Z,17.83
2023-05-21T07:46:47.015Z,16.25
2023-05-21T07:48:44.194Z,15.77
2023-05-21T07:50:42.477Z,15.93
2023-05-21T07:52:37.845Z,16.40
2023-05-21T07:54:33.599Z,16.33
2023-05-21T07:56:29.597Z,16.42
2023-05-21T07:58:25.261Z,15.50
2023-05-21T08:00:20.947Z,14.82
2023-05-21T08:02:16.838Z,14.68
2023-05-21T08:04:12.358Z,14.80
2023-05-21T08:06:10.820Z,13.88
2023-05-21T08:08:06.825Z,14.20
2023-05-21T08:10:03.039Z,14.52
2023-05-21T08:11:58.544Z,14.50
2023-05-21T08:13:53.951Z,14.35
2023-05-21T08:15:51.986Z,14.13
2023-05-21T08:17:48.505Z,14.32
2023-05-21T08:19:43.594Z,14.15
2023-05-21T08:21:41.526Z,13.40
2023-05-21T08:23:36.619Z,13.45
2023-05-21T08:25:32.536Z,13.00
2023-05-21T08:27:27.546Z,13.18
2023-05-21T08:29:24.889Z,12.93
2023-05-21T08:31:21.705Z,12.95
2023-05-21T08:33:19.544Z,13.90
2023-05-21T08:35:16.338Z,54.20
2023-05-21T08:37:14.271Z,13.02
2023-05-21T08:39:09.446Z,13.07
2023-05-21T08:41:07.115Z,12.98
2023-05-21T08:43:02.647Z,12.93
2023-05-21T08:45:02.818Z,11.77
2023-05-21T08:47:00.477Z,11.48
2023-05-21T08:48:57.791Z,11.25
2023-05-21T08:50:53.453Z,11.75
2023-05-21T08:52:53.228Z,11.63
2023-05-21T08:54:50.784Z,11.00
2023-05-21T08:56:49.664Z,12.23
2023-05-21T08:58:47.909Z,12.05
2023-05-21T09:00:43.448Z,10.75
2023-05-21T09:02:41.014Z,10.50
2023-05-21T09:04:39.068Z,10.30
2023-05-21T09:06:34.589Z,10.50
2023-05-21T09:08:38.020Z,9.88
2023-05-21T09:10:39.142Z,9.60
2023-05-21T09:12:34.992Z,9.95
2023-05-21T09:14:30.963Z,26.15
2023-05-21T09:16:26.369Z,13.32
2023-05-21T09:18:21.702Z,9.48
2023-05-21T09:20:18.690Z,9.68
2023-05-21T09:22:13.823Z,9.00
2023-05-21T09:24:12.742Z,9.13
2023-05-21T09:26:15.543Z,9.10
2023-05-21T09:28:15.040Z,8.77
2023-05-21T09:30:13.811Z,8.10
2023-05-21T09:32:10.601Z,8.60
2023-05-21T09:34:05.628Z,8.00
2023-05-21T09:36:02.255Z,8.40
2023-05-21T09:37:57.662Z,7.82
2023-05-21T09:39:55.769Z,8.73
2023-05-21T09:41:51.449Z,8.38
2023-05-21T09:43:47.402Z,8.07
2023-05-21T09:45:54.183Z,7.82
2023-05-21T09:47:50.710Z,7.63
2023-05-21T09:49:47.381Z,8.18
2023-05-21T09:51:46.556Z,7.00
2023-05-21T09:53:47.024Z,8.45
2023-05-21T09:55:44.999Z,7.30
2023-05-21T09:57:44.169Z,6.47
2023-05-21T09:59:39.918Z,6.72
2023-05-21T10:01:36.209Z,7.72
2023-05-21T10:03:34.662Z,6.65
2023-05-21T10:05:31.514Z,5.85
2023-05-21T10:07:28.987Z,6.47
2023-05-21T10:09:25.001Z,6.53
2023-05-21T10:11:26.613Z,5.82
2023-05-21T10:13:24.950Z,5.38
2023-05-21T10:15:26.677Z,6.05
2023-05-21T10:17:22.683Z,6.65
2023-05-21T10:19:19.733Z,4.80
2023-05-21T10:21:16.015Z,6.22
2023-05-21T10:23:13.114Z,5.53
2023-05-21T10:25:12.171Z,5.90
2023-05-21T10:27:11.737Z,5.25
2023-05-21T10:29:06.974Z,5.43
2023-05-21T10:31:02.808Z,6.13
2023-05-21T10:32:58.918Z,4.97
2023-05-21T10:34:56.278Z,5.47
2023-05-21T10:36:52.324Z,5.50
2023-05-21T10:38:48.416Z,5.60
2023-05-21T10:40:43.587Z,6.10
2023-05-21T10:43:09.032Z,5.53
2023-05-21T10:45:19.690Z,6.20
2023-05-21T10:47:34.870Z,4.82
2023-05-21T10:49:42.213Z,5.00
2023-05-21T10:51:48.134Z,5.53
2023-05-21T10:54:04.395Z,14.13
2023-05-21T10:56:17.137Z,6.32
2023-05-21T10:58:46.078Z,6.35
2023-05-21T11:00:50.719Z,5.65
2023-05-21T11:02:46.341Z,5.53
2023-05-21T11:04:44.418Z,5.13
2023-05-21T11:06:39.913Z,5.03
2023-05-21T11:08:37.454Z,5.38
2023-05-21T11:10:40.859Z,5.90
2023-05-21T11:12:37.876Z,5.00
2023-05-21T11:14:35.593Z,5.70
2023-05-21T11:16:33.916Z,5.30
2023-05-21T11:19:01.802Z,5.43
2023-05-21T11:20:57.377Z,5.57
2023-05-21T11:22:52.402Z,5.15
2023-05-21T11:28:27.234Z,6.28
2023-05-21T11:30:35.191Z,6.55
2023-05-21T11:32:34.196Z,5.53
2023-05-21T11:34:35.145Z,5.95
2023-05-21T11:36:41.364Z,5.65
2023-05-21T11:38:36.806Z,5.75
2023-05-21T11:40:32.005Z,5.07
2023-05-21T11:42:35.500Z,5.25
2023-05-21T11:44:43.514Z,5.90
2023-05-21T11:46:39.215Z,5.28
2023-05-21T11:48:37.444Z,5.10
2023-05-21T11:50:34.224Z,65.28
2023-05-21T11:52:31.938Z,5.43
2023-05-21T11:54:27.677Z,5.35
2023-05-21T11:56:24.570Z,5.00
2023-05-21T11:58:21.649Z,5.03
2023-05-21T12:00:18.646Z,5.47
2023-05-21T12:02:18.087Z,4.95
2023-05-21T12:04:16.428Z,5.50
2023-05-21T12:06:12.382Z,5.05
2023-05-21T12:08:10.793Z,4.93
2023-05-21T12:10:06.797Z,4.90
2023-05-21T12:12:05.670Z,4.97
2023-05-21T12:14:01.377Z,5.05
2023-05-21T12:15:56.973Z,5.50
2023-05-21T12:17:54.059Z,5.63
2023-05-21T12:19:53.750Z,5.03
2023-05-21T12:21:49.216Z,5.88
2023-05-21T12:23:44.606Z,5.78
2023-05-21T12:25:40.100Z,4.93
2023-05-21T12:27:37.249Z,6.20
2023-05-21T12:29:36.154Z,8.35
2023-05-21T12:31:35.617Z,7.75
2023-05-21T12:33:37.154Z,5.05
2023-05-21T12:35:35.271Z,5.28
2023-05-21T12:37:47.374Z,5.38
2023-05-21T12:43:14.919Z,5.47
2023-05-21T12:48:00.327Z,6.28
2023-05-21T12:49:58.613Z,5.65
2023-05-21T12:51:59.689Z,5.68
2023-05-21T12:53:55.984Z,5.28
2023-05-21T12:55:51.980Z,5.18
2023-05-21T12:57:52.097Z,5.60
2023-05-21T12:59:57.010Z,5.07
2023-05-21T13:01:58.393Z,5.10
2023-05-21T13:03:54.206Z,4.80
2023-05-21T13:05:52.701Z,4.95
2023-05-21T13:07:51.819Z,4.90
2023-05-21T13:09:48.956Z,5.00
2023-05-21T13:11:44.839Z,4.30
2023-05-21T13:13:43.368Z,4.97
2023-05-21T13:15:38.565Z,5.10
2023-05-21T13:17:35.697Z,4.68
2023-05-21T13:19:33.900Z,11.20
2023-05-21T13:21:29.643Z,5.00
2023-05-21T13:23:27.703Z,5.05
2023-05-21T13:25:25.119Z,4.53
2023-05-21T13:27:20.331Z,4.85
2023-05-21T13:29:16.345Z,6.10
2023-05-21T13:31:12.323Z,5.35
2023-05-21T13:33:09.123Z,5.20
2023-05-21T13:35:05.029Z,5.13
2023-05-21T13:37:00.403Z,5.03
2023-05-21T13:38:58.521Z,4.70
2023-05-21T13:40:53.968Z,4.65
2023-05-21T13:42:50.653Z,4.20
2023-05-21T13:44:46.078Z,4.70
2023-05-21T13:46:41.147Z,4.53
2023-05-21T13:48:36.619Z,4.95
2023-05-21T13:50:31.669Z,4.53
2023-05-21T13:52:27.449Z,5.18
2023-05-21T13:54:25.112Z,5.25
2023-05-21T13:56:21.273Z,5.53
2023-05-21T13:58:16.697Z,5.20
2023-05-21T14:00:14.411Z,5.00
2023-05-21T14:02:15.322Z,4.70
2023-05-21T14:04:10.768Z,5.57
2023-05-21T14:06:09.291Z,4.93
2023-05-21T14:08:04.600Z,4.80
2023-05-21T14:10:03.142Z,5.05
2023-05-21T14:12:00.288Z,4.80
2023-05-21T14:14:17.707Z,4.50
2023-05-21T14:16:27.093Z,4.63
2023-05-21T14:18:23.464Z,6.05
2023-05-21T14:20:20.603Z,5.57
2023-05-21T14:22:19.465Z,5.07
2023-05-21T14:24:17.203Z,5.15
2023-05-21T14:26:16.030Z,4.82
2023-05-21T14:28:23.631Z,5.25
2023-05-21T14:30:35.476Z,5.07
2023-05-21T14:32:34.595Z,5.00
2023-05-21T14:34:38.681Z,5.40
2023-05-21T14:36:37.234Z,21.52
2023-05-21T14:38:36.500Z,6.05
2023-05-21T14:40:33.537Z,5.35
2023-05-21T14:42:32.208Z,5.07
2023-05-21T14:44:30.518Z,4.40
2023-05-21T14:46:40.502Z,5.28
2023-05-21T14:48:53.633Z,5.63
2023-05-21T14:50:59.559Z,5.43
2023-05-21T14:53:03.054Z,5.80
2023-05-21T14:55:18.834Z,4.78
2023-05-21T14:57:31.618Z,5.13
2023-05-21T14:59:35.657Z,4.53
2023-05-21T15:02:13.712Z,5.22
2023-05-21T15:04:27.797Z,4.55
2023-05-21T15:06:23.414Z,4.45
2023-05-21T15:08:19.818Z,4.65
2023-05-21T15:10:17.249Z,5.03
2023-05-21T15:12:14.737Z,5.30
2023-05-21T15:14:10.128Z,4.53
2023-05-21T15:16:09.624Z,5.00
2023-05-21T15:18:05.616Z,5.25
2023-05-21T15:20:12.994Z,4.28
2023-05-21T15:22:10.927Z,4.40
2023-05-21T15:24:09.877Z,4.10
2023-05-21T15:26:05.024Z,4.45
2023-05-21T15:28:00.656Z,4.50
2023-05-21T15:29:56.208Z,4.53
2023-05-21T15:31:54.722Z,4.95
2023-05-21T15:34:24.214Z,4.47
2023-05-21T15:36:25.238Z,4.30
2023-05-21T15:38:20.504Z,4.80
2023-05-21T15:40:16.892Z,4.53
2023-05-21T15:42:11.990Z,4.50
2023-05-21T15:44:09.902Z,4.60
2023-05-21T15:46:05.011Z,4.10
2023-05-21T15:48:03.054Z,4.03
2023-05-21T15:50:01.356Z,4.10
2023-05-21T15:52:47.369Z,4.25
2023-05-21T15:54:44.317Z,4.35
2023-05-21T15:56:45.937Z,4.57
2023-05-21T15:58:46.462Z,4.60
2023-05-21T16:11:03.154Z,4.40
2023-05-21T16:53:50.476Z,3.80
2023-05-21T17:02:48.871Z,3.63
2023-05-21T17:18:24.747Z,4.38
2023-05-21T17:29:02.965Z,4.43
2023-05-21T17:37:17.343Z,3.65
2023-05-21T17:40:08.416Z,4.55
2023-05-21T18:02:32.580Z,5.32
2023-05-21T18:08:13.061Z,3.85
2023-05-21T18:12:53.708Z,4.63
2023-05-21T18:21:33.212Z,4.07
2023-05-21T18:29:36.611Z,4.25
2023-05-21T18:42:08.902Z,3.90
2023-05-21T18:44:42.785Z,4.10
2023-05-21T18:44:56.463Z,3.67
2023-05-21T18:46:44.309Z,4.03
2023-05-21T18:47:42.232Z,4.05
2023-05-21T18:48:44.176Z,3.88
2023-05-21T18:50:42.535Z,4.00
2023-05-21T18:55:26.781Z,3.70
2023-05-21T18:57:49.295Z,3.92
2023-05-21T18:58:40.822Z,4.20
2023-05-21T19:00:36.636Z,3.90
2023-05-21T19:02:34.981Z,3.75
2023-05-21T19:04:31.165Z,4.22
2023-05-21T19:06:29.377Z,3.63
2023-05-21T19:08:24.771Z,4.32
2023-05-21T19:10:25.045Z,3.83
2023-05-21T19:12:37.312Z,3.83
2023-05-21T19:14:39.105Z,3.42
2023-05-21T19:16:54.271Z,4.38
2023-05-21T19:18:58.433Z,4.30
2023-05-21T19:21:04.109Z,3.60
2023-05-21T19:22:59.729Z,4.15
2023-05-21T19:25:00.838Z,3.63
2023-05-21T19:27:02.707Z,4.28
2023-05-21T19:29:15.197Z,3.90
2023-05-21T19:31:23.330Z,3.80
2023-05-21T19:33:20.623Z,4.38
2023-05-21T19:35:26.903Z,4.28
2023-05-21T19:37:40.688Z,4.10
2023-05-21T19:39:42.414Z,3.70
2023-05-21T19:41:41.025Z,4.38
2023-05-21T19:43:41.855Z,13.00
2023-05-21T19:45:47.209Z,18.30
2023-05-21T19:47:54.414Z,5.28
2023-05-21T19:50:51.977Z,4.00
2023-05-21T19:53:07.198Z,4.00
2023-05-21T19:55:49.309Z,4.15
2023-05-21T19:58:56.670Z,4.50
2023-05-21T20:01:01.223Z,4.20
2023-05-21T20:03:00.426Z,4.22
2023-05-21T20:05:05.907Z,3.90
2023-05-21T20:07:01.585Z,4.30
2023-05-21T20:08:56.777Z,4.30
2023-05-21T20:10:52.401Z,11.45
2023-05-21T20:12:47.773Z,4.25
2023-05-21T20:14:47.603Z,3.60
2023-05-21T20:16:47.246Z,3.53
2023-05-21T20:18:46.909Z,3.70
2023-05-21T20:20:51.724Z,4.00
2023-05-21T20:25:32.220Z,4.25
2023-05-21T20:28:08.265Z,4.28
2023-05-21T20:30:11.659Z,4.45
2023-05-21T20:32:10.324Z,4.25
2023-05-21T20:34:07.614Z,4.07
2023-05-21T20:36:04.213Z,4.15
2023-05-21T20:38:02.367Z,4.50
2023-05-21T20:39:58.824Z,4.18
2023-05-21T20:41:54.254Z,4.35
2023-05-21T20:43:50.031Z,4.18
2023-05-21T20:45:45.280Z,4.28
2023-05-21T20:47:43.816Z,4.28
2023-05-21T20:49:39.971Z,4.28
2023-05-21T20:51:36.472Z,4.28
2023-05-21T20:53:32.241Z,4.57
2023-05-21T20:55:27.883Z,4.50
2023-05-21T20:57:24.227Z,4.22
2023-05-21T20:59:20.052Z,3.97
2023-05-21T21:01:15.554Z,4.20
2023-05-21T21:03:13.864Z,5.88
2023-05-21T21:05:10.623Z,4.63
2023-05-21T21:07:08.190Z,4.63
2023-05-21T21:09:03.833Z,3.92
2023-05-21T21:10:59.301Z,4.55
2023-05-21T21:12:54.410Z,4.68
2023-05-21T21:14:49.787Z,4.60
2023-05-21T21:16:44.859Z,4.35
2023-05-21T21:18:43.101Z,4.20
2023-05-21T21:20:38.532Z,4.57
2023-05-21T21:22:34.431Z,4.25
2023-05-21T21:24:29.586Z,4.15
2023-05-21T21:26:25.028Z,4.20
2023-05-21T21:28:20.106Z,4.13
2023-05-21T21:30:16.180Z,3.90
2023-05-21T21:32:11.309Z,4.57
2023-05-21T21:34:09.415Z,4.10
2023-05-21T21:36:04.674Z,4.85
2023-05-21T21:38:00.290Z,4.20
2023-05-21T21:39:56.205Z,4.22
2023-05-21T21:41:52.013Z,4.13
2023-05-21T21:43:47.415Z,4.15
2023-05-21T21:45:43.229Z,4.55
2023-05-21T21:47:38.682Z,4.50
2023-05-21T21:49:37.133Z,3.97
2023-05-21T21:51:32.494Z,4.00
2023-05-21T21:53:28.397Z,4.05
2023-05-21T21:55:24.344Z,4.25
2023-05-21T21:57:20.248Z,4.15
2023-05-21T21:59:15.678Z,3.97
2023-05-21T22:01:11.591Z,3.67
2023-05-21T22:03:07.340Z,3.88
2023-05-21T22:05:06.346Z,4.10
2023-05-21T22:07:01.864Z,3.95
2023-05-21T22:08:57.728Z,3.55
2023-05-21T22:10:53.173Z,4.45
2023-05-21T22:12:48.968Z,5.10
2023-05-21T22:14:44.298Z,3.72
2023-05-21T22:16:41.677Z,4.47
2023-05-21T22:18:41.209Z,4.25
2023-05-21T22:20:40.270Z,5.03
2023-05-21T22:22:35.829Z,4.38
2023-05-21T22:24:33.215Z,4.22
2023-05-21T22:26:28.879Z,4.25
2023-05-21T22:28:24.770Z,4.45
2023-05-21T22:30:20.367Z,4.25
2023-05-21T22:32:16.723Z,4.00
2023-05-21T22:34:12.266Z,4.65
2023-05-21T22:36:11.497Z,4.20
2023-05-21T22:38:06.871Z,4.40
2023-05-21T22:40:02.582Z,4.50
2023-05-21T22:41:58.063Z,4.70
2023-05-21T22:43:53.801Z,4.32
2023-05-21T22:45:49.314Z,3.97
2023-05-21T22:47:45.352Z,4.32
2023-05-21T22:49:40.846Z,4.32
2023-05-21T22:51:39.328Z,4.20
2023-05-21T22:53:35.689Z,3.85
2023-05-21T22:55:31.332Z,4.05
2023-05-21T22:57:26.509Z,3.90
2023-05-21T22:59:22.012Z,4.30
2023-05-21T23:01:17.221Z,4.30
2023-05-21T23:03:13.436Z,3.90
2023-05-21T23:05:09.123Z,4.18
2023-05-21T23:07:07.648Z,4.30
2023-05-21T23:09:02.731Z,3.90
2023-05-21T23:10:58.234Z,4.65
2023-05-21T23:12:54.209Z,4.28
2023-05-21T23:14:49.936Z,3.97
2023-05-21T23:16:45.523Z,4.15
2023-05-21T23:18:41.097Z,4.22
2023-05-21T23:20:37.022Z,3.90
2023-05-21T23:22:35.623Z,4.00
2023-05-21T23:24:31.336Z,4.15
2023-05-21T23:26:26.762Z,3.83
2023-05-21T23:28:21.858Z,4.03
2023-05-21T23:30:18.222Z,3.90
2023-05-21T23:32:13.460Z,4.03
2023-05-21T23:34:09.686Z,3.83
2023-05-21T23:36:04.792Z,4.00
2023-05-21T23:38:03.400Z,3.78
2023-05-21T23:39:58.548Z,4.03
2023-05-21T23:41:53.924Z,3.97
2023-05-21T23:43:49.003Z,4.05
2023-05-21T23:45:44.642Z,4.10
2023-05-21T23:47:39.796Z,4.43
2023-05-21T23:49:35.311Z,3.97
2023-05-21T23:51:31.127Z,3.67
2023-05-21T23:53:29.104Z,3.88
2023-05-21T23:55:24.310Z,3.63
2023-05-21T23:57:19.706Z,4.07
2023-05-21T23:59:16.992Z,4.10
